createdAt,value
2023-02-27T00:00:17.971Z,506.00
2023-02-27T00:01:18.012Z,505.00
2023-02-27T00:02:18.070Z,507.00
2023-02-27T00:03:18.049Z,512.00
2023-02-27T00:04:18.995Z,509.00
2023-02-27T00:05:18.116Z,502.00
2023-02-27T00:06:18.193Z,509.00
2023-02-27T00:07:18.150Z,506.00
2023-02-27T00:08:18.166Z,508.00
2023-02-27T00:09:18.182Z,509.00
2023-02-27T00:10:18.187Z,507.00
2023-02-27T00:11:18.188Z,504.00
2023-02-27T00:12:18.218Z,507.00
2023-02-27T00:13:18.251Z,507.00
2023-02-27T00:14:18.260Z,503.00
2023-02-27T00:15:18.301Z,505.00
2023-02-27T00:16:18.373Z,508.00
2023-02-27T00:17:18.415Z,506.00
2023-02-27T00:18:18.419Z,509.00
2023-02-27T00:19:18.494Z,508.00
2023-02-27T00:20:18.559Z,507.00
2023-02-27T00:21:18.570Z,503.00
2023-02-27T00:22:18.615Z,508.00
2023-02-27T00:23:18.659Z,515.00
2023-02-27T00:24:18.685Z,507.00
2023-02-27T00:25:18.700Z,508.00
2023-02-27T00:26:18.760Z,505.00
2023-02-27T00:27:18.762Z,505.00
2023-02-27T00:28:18.791Z,504.00
2023-02-27T00:29:18.809Z,504.00
2023-02-27T00:30:18.831Z,514.00
2023-02-27T00:31:19.037Z,505.00
2023-02-27T00:32:19.073Z,507.00
2023-02-27T00:33:18.906Z,508.00
2023-02-27T00:34:18.931Z,514.00
2023-02-27T00:35:19.098Z,512.00
2023-02-27T00:36:19.015Z,504.00
2023-02-27T00:37:19.110Z,513.00
2023-02-27T00:38:19.111Z,510.00
2023-02-27T00:39:19.156Z,510.00
2023-02-27T00:40:19.225Z,504.00
2023-02-27T00:41:19.271Z,505.00
2023-02-27T00:42:19.300Z,508.00
2023-02-27T00:43:19.346Z,501.00
2023-02-27T00:44:19.390Z,505.00
2023-02-27T00:45:19.424Z,509.00
2023-02-27T00:47:19.518Z,507.00
2023-02-27T00:48:19.530Z,510.00
2023-02-27T00:49:19.559Z,506.00
2023-02-27T00:50:19.596Z,509.00
2023-02-27T00:52:20.025Z,506.00
2023-02-27T00:53:19.714Z,509.00
2023-02-27T02:20:26.023Z,507.00
2023-02-27T02:21:26.423Z,506.00
2023-02-27T02:22:26.074Z,509.00
2023-02-27T02:23:26.138Z,506.00
2023-02-27T02:24:26.228Z,506.00
2023-02-27T02:25:26.279Z,509.00
2023-02-27T02:26:27.730Z,506.00
2023-02-27T02:27:26.349Z,514.00
2023-02-27T02:28:26.358Z,505.00
2023-02-27T02:29:26.373Z,508.00
2023-02-27T02:30:27.207Z,511.00
2023-02-27T02:31:27.028Z,505.00
2023-02-27T02:32:26.439Z,509.00
2023-02-27T02:33:26.414Z,502.00
2023-02-27T02:34:26.438Z,504.00
2023-02-27T02:35:26.460Z,507.00
2023-02-27T02:36:26.455Z,511.00
2023-02-27T02:37:26.465Z,506.00
2023-02-27T02:38:26.494Z,507.00
2023-02-27T02:39:26.499Z,507.00
2023-02-27T02:40:26.528Z,510.00
2023-02-27T02:41:26.822Z,504.00
2023-02-27T02:42:26.532Z,507.00
2023-02-27T02:43:26.540Z,503.00
2023-02-27T02:44:26.554Z,510.00
2023-02-27T02:45:26.563Z,510.00
2023-02-27T02:46:26.611Z,506.00
2023-02-27T02:47:26.594Z,510.00
2023-02-27T02:48:26.596Z,507.00
2023-02-27T02:49:26.613Z,506.00
2023-02-27T02:50:26.613Z,507.00
2023-02-27T02:51:26.974Z,505.00
2023-02-27T02:52:26.640Z,503.00
2023-02-27T02:53:31.110Z,506.00
2023-02-27T02:54:28.556Z,506.00
2023-02-27T02:55:26.670Z,507.00
2023-02-27T02:56:26.658Z,508.00
2023-02-27T02:58:26.679Z,506.00
2023-02-27T04:56:36.108Z,507.00
2023-02-27T05:01:36.156Z,501.00
2023-02-27T05:05:35.945Z,508.00
2023-02-27T05:06:36.020Z,512.00
2023-02-27T05:07:36.086Z,504.00
2023-02-27T05:08:36.152Z,505.00
2023-02-27T05:09:36.239Z,507.00
2023-02-27T05:10:36.319Z,508.00
2023-02-27T05:11:36.398Z,505.00
2023-02-27T05:12:36.483Z,512.00
2023-02-27T05:13:36.549Z,508.00
2023-02-27T05:14:36.630Z,507.00
2023-02-27T05:15:36.793Z,509.00
2023-02-27T05:16:36.874Z,507.00
2023-02-27T05:17:36.882Z,503.00
2023-02-27T05:18:36.936Z,509.00
2023-02-27T05:19:37.005Z,512.00
2023-02-27T05:20:37.092Z,508.00
2023-02-27T05:21:37.167Z,507.00
2023-02-27T05:22:37.248Z,507.00
2023-02-27T05:23:37.325Z,504.00
2023-02-27T05:24:37.464Z,506.00
2023-02-27T05:25:37.511Z,504.00
2023-02-27T05:26:37.558Z,504.00
2023-02-27T05:27:37.693Z,505.00
2023-02-27T05:28:37.682Z,508.00
2023-02-27T05:29:37.761Z,504.00
2023-02-27T05:30:37.838Z,506.00
2023-02-27T05:31:37.996Z,509.00
2023-02-27T05:32:38.034Z,510.00
2023-02-27T05:33:38.075Z,506.00
2023-02-27T05:34:38.145Z,510.00
2023-02-27T05:35:38.235Z,510.00
2023-02-27T05:36:38.308Z,510.00
2023-02-27T05:37:38.465Z,508.00
2023-02-27T05:38:38.457Z,506.00
2023-02-27T05:39:38.544Z,508.00
2023-02-27T05:40:38.612Z,515.00
2023-02-27T07:46:45.981Z,537.00
2023-02-27T07:47:46.032Z,539.00
2023-02-27T07:48:46.083Z,535.00
2023-02-27T07:49:46.145Z,540.00
2023-02-27T07:50:46.201Z,534.00
2023-02-27T07:51:46.270Z,536.00
2023-02-27T07:52:46.320Z,537.00
2023-02-27T07:53:46.389Z,536.00
2023-02-27T07:54:46.429Z,539.00
2023-02-27T07:55:46.487Z,542.00
2023-02-27T07:56:46.535Z,535.00
2023-02-27T07:57:46.592Z,538.00
2023-02-27T07:58:46.667Z,540.00
2023-02-27T07:59:46.720Z,539.00
2023-02-27T08:00:46.781Z,540.00
2023-02-27T08:01:46.837Z,543.00
2023-02-27T08:02:46.999Z,536.00
2023-02-27T08:03:46.965Z,539.00
2023-02-27T08:04:47.037Z,538.00
2023-02-27T08:05:47.072Z,545.00
2023-02-27T08:06:47.133Z,540.00
2023-02-27T08:18:47.892Z,543.00
2023-02-27T08:19:47.911Z,537.00
2023-02-27T08:20:47.941Z,542.00
2023-02-27T08:21:47.989Z,543.00
2023-02-27T08:22:48.048Z,544.00
2023-02-27T08:23:48.113Z,550.00
2023-02-27T08:24:48.165Z,556.00
2023-02-27T08:25:48.205Z,570.00
2023-02-27T08:26:48.250Z,584.00
2023-02-27T08:27:48.291Z,598.00
2023-02-27T08:28:48.315Z,606.00
2023-02-27T08:29:48.360Z,634.00
2023-02-27T08:30:48.363Z,660.00
2023-02-27T08:31:48.490Z,685.00
2023-02-27T08:32:48.411Z,715.00
2023-02-27T08:33:53.107Z,766.00
2023-02-27T08:34:49.695Z,769.00
2023-02-27T08:35:48.425Z,776.00
2023-02-27T08:36:48.506Z,805.00
2023-02-27T08:37:48.397Z,859.00
2023-02-27T08:38:48.379Z,965.00
2023-02-27T08:39:48.360Z,992.00
2023-02-27T08:40:48.422Z,1035.00
2023-02-27T08:41:48.349Z,1066.00
2023-02-27T08:42:48.338Z,1118.00
2023-02-27T08:43:48.319Z,1195.00
2023-02-27T08:44:48.378Z,1214.00
2023-02-27T08:45:48.478Z,1244.00
2023-02-27T08:46:48.496Z,1280.00
2023-02-27T08:47:48.551Z,1297.00
2023-02-27T08:48:48.605Z,1351.00
2023-02-27T09:45:51.430Z,1631.00
2023-02-27T09:46:51.325Z,1654.00
2023-02-27T09:47:51.353Z,1667.00
2023-02-27T09:49:51.382Z,1731.00
2023-02-27T09:50:51.416Z,1730.00
2023-02-27T09:51:53.327Z,1766.00
2023-02-27T09:52:51.440Z,1778.00
2023-02-27T09:53:51.454Z,1803.00
2023-02-27T09:54:51.483Z,1824.00
2023-02-27T09:55:51.507Z,1854.00
2023-02-27T09:56:51.509Z,1885.00
2023-02-27T09:57:51.522Z,1903.00
2023-02-27T09:58:51.543Z,1923.00
2023-02-27T09:59:52.801Z,1947.00
2023-02-27T10:00:51.580Z,1968.00
2023-02-27T10:01:51.581Z,1975.00
2023-02-27T10:02:51.633Z,2009.00
2023-02-27T10:03:51.589Z,2036.00
2023-02-27T10:04:51.627Z,2058.00
2023-02-27T10:05:51.625Z,2093.00
2023-02-27T10:06:51.617Z,2130.00
2023-02-27T10:07:51.622Z,2153.00
2023-02-27T10:08:51.612Z,2167.00
2023-02-27T10:09:51.613Z,2199.00
2023-02-27T10:10:51.600Z,2208.00
2023-02-27T10:11:51.592Z,2215.00
2023-02-27T10:12:51.592Z,2230.00
2023-02-27T10:13:52.221Z,2249.00
2023-02-27T10:14:51.560Z,2278.00
2023-02-27T10:15:51.550Z,2290.00
2023-02-27T10:16:51.556Z,2302.00
2023-02-27T10:17:51.539Z,2268.00
2023-02-27T10:18:51.561Z,2302.00
2023-02-27T10:20:51.585Z,2293.00
2023-02-27T10:21:51.554Z,2280.00
2023-02-27T10:22:51.580Z,2295.00
2023-02-27T10:23:51.556Z,2280.00
2023-02-27T10:24:52.337Z,2284.00
2023-02-27T10:25:52.241Z,2283.00
2023-02-27T10:26:51.612Z,2283.00
2023-02-27T10:27:51.607Z,2280.00
2023-02-27T10:29:51.658Z,2275.00
2023-02-27T10:30:51.748Z,2273.00
2023-02-27T10:31:51.750Z,2268.00
2023-02-27T10:32:51.822Z,2262.00
2023-02-27T10:33:51.803Z,2245.00
2023-02-27T10:34:51.851Z,2251.00
2023-02-27T10:36:51.950Z,2242.00
2023-02-27T10:37:52.001Z,2247.00
2023-02-27T10:38:52.046Z,2224.00
2023-02-27T10:39:52.096Z,2219.00
2023-02-27T10:40:52.170Z,2237.00
2023-02-27T10:41:52.207Z,2234.00
2023-02-27T10:42:52.278Z,2220.00
2023-02-27T10:45:52.467Z,2190.00
2023-02-27T10:46:52.505Z,2210.00
2023-02-27T10:47:52.477Z,2179.00
2023-02-27T10:48:52.484Z,2179.00
2023-02-27T10:49:52.505Z,2172.00
2023-02-27T10:50:52.552Z,2171.00
2023-02-27T10:51:52.587Z,2162.00
2023-02-27T10:52:52.630Z,2164.00
2023-02-27T10:53:52.659Z,2151.00
2023-02-27T10:55:52.701Z,2136.00
2023-02-27T10:56:52.808Z,2147.00
2023-02-27T10:57:52.766Z,2140.00
2023-02-27T13:21:55.945Z,1527.00
2023-02-27T13:22:56.004Z,1529.00
2023-02-27T13:23:56.046Z,1518.00
2023-02-27T13:24:56.150Z,1529.00
2023-02-27T13:25:56.148Z,1519.00
2023-02-27T13:26:56.271Z,1523.00
2023-02-27T13:27:56.250Z,1512.00
2023-02-27T13:28:56.288Z,1509.00
2023-02-27T13:29:56.353Z,1515.00
2023-02-27T13:30:56.398Z,1504.00
2023-02-27T13:31:56.520Z,1498.00
2023-02-27T13:32:56.568Z,1509.00
2023-02-27T13:33:56.565Z,1506.00
2023-02-27T13:34:56.603Z,1482.00
2023-02-27T13:35:56.671Z,1479.00
2023-02-27T13:36:56.701Z,1497.00
2023-02-27T13:37:56.756Z,1477.00
2023-02-27T13:38:56.799Z,1476.00
2023-02-27T13:39:56.884Z,1468.00
2023-02-27T13:40:56.894Z,1475.00
2023-02-27T13:41:56.955Z,1474.00
2023-02-27T13:42:57.010Z,1465.00
2023-02-27T13:43:57.044Z,1457.00
2023-02-27T13:44:57.098Z,1454.00
2023-02-27T13:45:57.255Z,1451.00
2023-02-27T13:46:57.188Z,1434.00
2023-02-27T13:47:57.229Z,1442.00
2023-02-27T13:56:57.613Z,1405.00
2023-02-27T13:57:57.679Z,1411.00
2023-02-27T13:58:58.034Z,1410.00
2023-02-27T13:59:57.694Z,1396.00
2023-02-27T14:00:58.353Z,1388.00
2023-02-27T14:01:57.765Z,1394.00
2023-02-27T14:03:00.205Z,1388.00
2023-02-27T14:03:57.808Z,1398.00
2023-02-27T14:04:57.798Z,1382.00
2023-02-27T14:05:57.902Z,1385.00
2023-02-27T14:06:57.795Z,1371.00
2023-02-27T14:07:57.796Z,1372.00
2023-02-27T14:09:08.817Z,1363.00
2023-02-27T14:09:58.852Z,1365.00
2023-02-27T14:10:57.825Z,1365.00
2023-02-27T14:11:57.815Z,1367.00
2023-02-27T14:12:57.814Z,1366.00
2023-02-27T14:13:57.870Z,1364.00
2023-02-27T14:14:57.805Z,1360.00
2023-02-27T14:15:57.897Z,1356.00
2023-02-27T14:16:57.812Z,1346.00
2023-02-27T14:18:12.342Z,1345.00
2023-02-27T14:18:58.812Z,1346.00
2023-02-27T14:19:57.818Z,1345.00
2023-02-27T14:20:57.818Z,1346.00
2023-02-27T14:21:57.831Z,1340.00
2023-02-27T14:22:57.817Z,1337.00
2023-02-27T14:23:57.843Z,1339.00
2023-02-27T14:25:02.925Z,1330.00
2023-02-27T14:25:58.840Z,1331.00
2023-02-27T14:26:57.861Z,1333.00
2023-02-27T14:28:57.833Z,1326.00
2023-02-27T14:29:57.829Z,1328.00
2023-02-27T14:30:57.915Z,1323.00
2023-02-27T14:31:57.881Z,1316.00
2023-02-27T14:32:57.837Z,1317.00
2023-02-27T14:34:57.833Z,1293.00
2023-02-27T14:35:57.863Z,1302.00
2023-02-27T14:37:57.826Z,1304.00
2023-02-27T14:39:57.823Z,1300.00
2023-02-27T14:40:57.820Z,1306.00
2023-02-27T14:41:57.841Z,1296.00
2023-02-27T14:42:57.876Z,1285.00
2023-02-27T14:44:57.967Z,1285.00
2023-02-27T14:45:58.028Z,1285.00
2023-02-27T14:46:58.066Z,1286.00
2023-02-27T14:47:58.125Z,1280.00
2023-02-27T14:49:58.208Z,1282.00
2023-02-27T14:50:58.239Z,1278.00
2023-02-27T14:51:58.299Z,1279.00
2023-02-27T14:52:58.359Z,1259.00
2023-02-27T14:53:58.398Z,1267.00
2023-02-27T14:54:58.464Z,1264.00
2023-02-27T14:55:58.516Z,1267.00
2023-02-27T14:56:58.572Z,1261.00
2023-02-27T14:57:58.614Z,1263.00
2023-02-27T14:59:04.347Z,1265.00
2023-02-27T14:59:59.655Z,1265.00
2023-02-27T15:00:58.651Z,1265.00
2023-02-27T15:01:58.726Z,1265.00
2023-02-27T15:02:58.680Z,1254.00
2023-02-27T15:03:58.793Z,1259.00
2023-02-27T15:04:58.668Z,1250.00
2023-02-27T15:05:58.666Z,1247.00
2023-02-27T15:06:58.673Z,1240.00
2023-02-27T15:07:58.678Z,1232.00
2023-02-27T15:09:58.696Z,1228.00
2023-02-27T15:10:58.695Z,1229.00
2023-02-27T15:12:03.947Z,1225.00
2023-02-27T15:12:59.720Z,1226.00
2023-02-27T15:13:58.713Z,1227.00
2023-02-27T15:14:58.819Z,1229.00
2023-02-27T15:16:02.235Z,1228.00
2023-02-27T15:16:59.740Z,1226.00
2023-02-27T17:17:06.053Z,1087.00
2023-02-27T17:18:07.517Z,1073.00
2023-02-27T17:19:06.068Z,1102.00
2023-02-27T17:20:06.105Z,1093.00
2023-02-27T17:21:06.075Z,1076.00
2023-02-27T17:22:06.075Z,1074.00
2023-02-27T17:23:06.089Z,1081.00
2023-02-27T17:24:06.119Z,1072.00
2023-02-27T17:25:06.119Z,1061.00
2023-02-27T17:26:06.117Z,1068.00
2023-02-27T17:27:06.124Z,1067.00
2023-02-27T17:28:06.128Z,1067.00
2023-02-27T17:29:06.142Z,1061.00
2023-02-27T17:30:06.206Z,1066.00
2023-02-27T17:31:06.245Z,1070.00
2023-02-27T17:32:06.193Z,1052.00
2023-02-27T17:33:06.180Z,1068.00
2023-02-27T17:34:06.189Z,1050.00
2023-02-27T17:35:06.204Z,1046.00
2023-02-27T17:36:06.203Z,1034.00
2023-02-27T17:37:06.203Z,1053.00
2023-02-27T17:38:07.522Z,1054.00
2023-02-27T17:39:06.215Z,1055.00
2023-02-27T17:40:06.243Z,1054.00
2023-02-27T17:41:06.231Z,1052.00
2023-02-27T17:42:06.246Z,1040.00
2023-02-27T17:43:06.268Z,1037.00
2023-02-27T17:44:06.277Z,1039.00
2023-02-27T17:45:06.314Z,1037.00
2023-02-27T17:46:06.325Z,1034.00
2023-02-27T17:47:06.313Z,1029.00
2023-02-27T17:48:06.351Z,1012.00
2023-02-27T17:49:06.344Z,1023.00
2023-02-27T17:50:06.362Z,1005.00
2023-02-27T17:51:06.352Z,1019.00
2023-02-27T17:52:06.376Z,1025.00
2023-02-27T17:53:06.397Z,1003.00
2023-02-27T17:54:06.396Z,1016.00
2023-02-27T17:55:06.436Z,1012.00
2023-02-27T17:56:06.417Z,1016.00
2023-02-27T17:57:06.433Z,1007.00
2023-02-27T17:58:06.489Z,995.00
2023-02-27T17:59:06.558Z,1003.00
2023-02-27T18:00:06.647Z,1006.00
2023-02-27T18:01:06.774Z,988.00
2023-02-27T18:02:06.812Z,996.00
2023-02-27T18:03:06.853Z,986.00
2023-02-27T18:04:06.972Z,1008.00
2023-02-27T18:05:06.988Z,981.00
2023-02-27T18:06:07.118Z,979.00
2023-02-27T18:07:07.131Z,977.00
2023-02-27T18:08:07.203Z,983.00
2023-02-27T18:09:07.265Z,978.00
2023-02-27T18:10:07.359Z,986.00
2023-02-27T18:11:07.426Z,971.00
2023-02-27T18:12:07.499Z,974.00
2023-02-27T18:13:07.570Z,970.00
2023-02-27T18:14:07.674Z,970.00
2023-02-27T18:15:07.719Z,963.00
2023-02-27T18:16:07.896Z,964.00
2023-02-27T18:17:07.882Z,952.00
2023-02-27T18:18:07.934Z,956.00
2023-02-27T18:19:08.020Z,959.00
2023-02-27T18:20:08.100Z,944.00
2023-02-27T18:21:08.366Z,943.00
2023-02-27T18:22:08.236Z,947.00
2023-02-27T18:23:08.315Z,954.00
2023-02-27T18:24:08.389Z,955.00
2023-02-27T18:25:08.480Z,940.00
2023-02-27T18:26:12.531Z,940.00
2023-02-27T18:27:09.568Z,941.00
2023-02-27T18:28:08.551Z,937.00
2023-02-27T18:29:08.579Z,944.00
2023-02-27T18:30:08.594Z,945.00
2023-02-27T18:31:08.672Z,945.00
2023-02-27T18:32:08.740Z,935.00
2023-02-27T18:33:08.703Z,943.00
2023-02-27T18:34:08.634Z,932.00
2023-02-27T18:35:08.638Z,923.00
2023-02-27T18:36:08.643Z,928.00
2023-02-27T18:37:08.700Z,927.00
2023-02-27T18:38:08.764Z,925.00
2023-02-27T18:39:08.824Z,929.00
2023-02-27T18:40:08.882Z,925.00
2023-02-27T18:41:09.024Z,914.00
2023-02-27T18:42:09.097Z,919.00
2023-02-27T18:43:09.071Z,906.00
2023-02-27T18:44:09.110Z,911.00
2023-02-27T18:45:09.154Z,899.00
2023-02-27T18:46:09.234Z,903.00
2023-02-27T18:47:09.250Z,905.00
2023-02-27T18:48:09.320Z,902.00
2023-02-27T18:49:09.322Z,910.00
2023-02-27T18:50:09.361Z,912.00
2023-02-27T18:51:09.435Z,887.00
2023-02-27T18:52:09.488Z,904.00
2023-02-27T18:53:09.525Z,884.00
2023-02-27T18:54:09.587Z,893.00
2023-02-27T18:55:09.626Z,883.00
2023-02-27T18:56:09.745Z,890.00
2023-02-27T18:57:09.809Z,890.00
2023-02-27T18:58:09.819Z,878.00
2023-02-27T18:59:09.850Z,868.00
2023-02-27T19:00:09.903Z,870.00
2023-02-27T19:01:09.943Z,869.00
2023-02-27T19:02:09.961Z,881.00
2023-02-27T19:03:10.138Z,870.00
2023-02-27T19:04:10.079Z,871.00
2023-02-27T19:05:10.114Z,866.00
2023-02-27T19:06:10.143Z,870.00
2023-02-27T19:07:10.177Z,879.00
2023-02-27T19:08:10.313Z,854.00
2023-02-27T19:09:10.225Z,862.00
2023-02-27T19:10:10.259Z,845.00
2023-02-27T19:11:10.290Z,864.00
2023-02-27T19:12:10.334Z,867.00
2023-02-27T19:13:10.406Z,846.00
2023-02-27T19:14:10.434Z,859.00
2023-02-27T19:15:10.541Z,839.00
2023-02-27T19:16:10.542Z,845.00
2023-02-27T19:17:10.543Z,836.00
2023-02-27T19:18:10.568Z,840.00
2023-02-27T19:19:10.624Z,829.00
2023-02-27T19:20:10.717Z,848.00
2023-02-27T19:21:10.687Z,828.00
2023-02-27T19:22:10.718Z,827.00
2023-02-27T19:23:10.742Z,847.00
2023-02-27T19:24:10.792Z,830.00
2023-02-27T19:25:10.830Z,822.00
2023-02-27T19:26:10.880Z,827.00
2023-02-27T19:27:10.949Z,827.00
2023-02-27T19:28:10.993Z,822.00
2023-02-27T19:29:11.056Z,819.00
2023-02-27T19:30:11.129Z,818.00
2023-02-27T20:20:14.102Z,722.00
2023-02-27T20:21:14.133Z,725.00
2023-02-27T20:22:14.169Z,713.00
2023-02-27T20:23:14.199Z,724.00
2023-02-27T20:24:14.262Z,729.00
2023-02-27T20:25:14.286Z,725.00
2023-02-27T20:26:14.436Z,710.00
2023-02-27T20:27:14.408Z,718.00
2023-02-27T20:28:14.457Z,711.00
2023-02-27T20:29:14.532Z,719.00
2023-02-27T20:30:14.581Z,728.00
2023-02-27T21:01:15.981Z,675.00
2023-02-27T21:02:16.003Z,671.00
2023-02-27T21:03:16.049Z,663.00
2023-02-27T21:04:16.210Z,664.00
2023-02-27T21:05:16.194Z,671.00
2023-02-27T21:06:16.238Z,663.00
2023-02-27T21:07:16.325Z,664.00
2023-02-27T21:08:16.367Z,667.00
2023-02-27T21:09:16.438Z,662.00
2023-02-27T21:10:16.566Z,659.00
2023-02-27T21:11:16.545Z,665.00
2023-02-27T21:12:16.622Z,662.00
2023-02-27T21:13:16.663Z,667.00
2023-02-27T21:14:16.713Z,661.00
2023-02-27T21:15:16.754Z,660.00
2023-02-27T21:16:16.877Z,658.00
2023-02-27T21:17:16.857Z,656.00
2023-02-27T21:18:16.900Z,653.00
2023-02-27T21:19:16.970Z,654.00
2023-02-27T21:20:17.052Z,654.00
2023-02-27T21:21:17.112Z,654.00
2023-02-27T21:22:17.180Z,658.00
2023-02-27T21:23:17.216Z,655.00
2023-02-27T21:24:17.289Z,649.00
2023-02-27T21:25:17.334Z,652.00
2023-02-27T21:26:17.386Z,649.00
2023-02-27T21:27:17.447Z,656.00
2023-02-27T21:28:17.525Z,654.00
2023-02-27T21:29:17.567Z,655.00
2023-02-27T21:30:17.679Z,649.00
2023-02-27T21:31:17.815Z,654.00
2023-02-27T21:32:17.820Z,653.00
2023-02-27T21:33:17.838Z,649.00
2023-02-27T21:44:18.475Z,637.00
2023-02-27T21:45:18.537Z,640.00
2023-02-27T21:46:18.584Z,646.00
2023-02-27T21:47:18.594Z,639.00
2023-02-27T21:48:18.639Z,640.00
2023-02-27T21:49:18.694Z,644.00
2023-02-27T21:50:18.751Z,642.00
2023-02-27T21:51:33.040Z,643.00
2023-02-27T21:52:19.754Z,643.00
2023-02-27T21:53:18.764Z,640.00
2023-02-27T21:54:18.786Z,641.00
2023-02-27T21:55:18.804Z,644.00
2023-02-27T21:56:18.795Z,639.00
2023-02-27T21:57:18.827Z,641.00
2023-02-27T21:58:18.833Z,640.00
2023-02-27T21:59:18.844Z,634.00
2023-02-27T22:00:18.883Z,641.00
2023-02-27T22:01:18.890Z,635.00
2023-02-27T22:02:18.943Z,640.00
2023-02-27T22:03:18.900Z,631.00
2023-02-27T22:04:18.916Z,630.00
2023-02-27T22:05:18.974Z,634.00
2023-02-27T22:06:18.944Z,631.00
2023-02-27T22:07:18.947Z,631.00
2023-02-27T22:08:18.960Z,632.00
2023-02-27T22:09:18.987Z,635.00
2023-02-27T22:10:19.006Z,633.00
2023-02-27T22:11:19.016Z,630.00
2023-02-27T22:12:19.040Z,627.00
2023-02-27T22:13:19.488Z,629.00
2023-02-27T22:14:19.064Z,625.00
2023-02-27T22:15:19.073Z,627.00
2023-02-27T22:16:19.164Z,631.00
2023-02-27T22:17:19.107Z,624.00
2023-02-27T22:18:19.124Z,628.00
2023-02-27T22:19:19.147Z,627.00
2023-02-27T22:20:19.269Z,625.00
2023-02-27T22:21:19.245Z,629.00
2023-02-27T22:22:19.192Z,620.00
2023-02-27T22:23:19.206Z,623.00
2023-02-27T22:24:19.306Z,628.00
2023-02-27T22:25:19.263Z,620.00
2023-02-27T22:26:19.310Z,626.00
2023-02-27T22:27:19.330Z,625.00
2023-02-27T22:28:19.390Z,619.00
2023-02-27T22:29:19.427Z,618.00
2023-02-27T22:30:19.493Z,627.00
2023-02-27T22:31:19.525Z,625.00
2023-02-27T22:32:19.581Z,619.00
2023-02-27T22:33:19.573Z,619.00
2023-02-27T22:34:19.627Z,617.00
2023-02-27T22:35:19.634Z,622.00
2023-02-27T22:36:19.643Z,618.00
2023-02-27T22:37:19.695Z,620.00
2023-02-27T22:38:19.753Z,614.00
2023-02-27T22:39:19.740Z,618.00
2023-02-27T22:40:19.755Z,619.00
2023-02-27T22:41:19.789Z,621.00
2023-02-27T22:42:19.822Z,615.00
2023-02-27T22:43:19.842Z,614.00
2023-02-27T22:44:19.855Z,613.00
2023-02-27T22:45:19.861Z,616.00
2023-02-27T22:46:19.905Z,617.00
2023-02-27T22:47:19.948Z,612.00
2023-02-27T22:48:19.970Z,620.00
2023-02-27T22:49:20.005Z,614.00
2023-02-27T22:50:20.096Z,615.00
2023-02-27T22:51:20.036Z,616.00
2023-02-27T22:52:20.072Z,613.00
2023-02-27T22:53:20.114Z,618.00
2023-02-27T22:54:20.145Z,619.00
2023-02-27T22:55:20.162Z,616.00
2023-02-27T22:56:20.214Z,612.00
2023-02-27T22:57:20.254Z,616.00
2023-02-27T22:58:20.350Z,613.00
2023-02-27T22:59:20.303Z,615.00
2023-02-27T23:00:20.335Z,613.00
2023-02-27T23:01:21.015Z,609.00
2023-02-27T23:02:20.392Z,618.00
2023-02-27T23:03:20.458Z,607.00
2023-02-27T23:04:20.553Z,612.00
2023-02-27T23:05:20.515Z,610.00
2023-02-27T23:06:20.601Z,613.00
2023-02-27T23:07:20.548Z,613.00
2023-02-27T23:08:20.585Z,617.00
2023-02-27T23:09:20.670Z,608.00
2023-02-27T23:10:20.668Z,607.00
2023-02-27T23:11:20.674Z,614.00
2023-02-27T23:12:20.702Z,610.00
2023-02-27T23:13:20.721Z,610.00
2023-02-27T23:14:20.753Z,613.00
2023-02-27T23:15:20.788Z,604.00
2023-02-27T23:16:20.841Z,606.00
2023-02-27T23:17:20.805Z,611.00
2023-02-27T23:18:20.828Z,608.00
2023-02-27T23:19:20.847Z,606.00
2023-02-27T23:20:20.872Z,610.00
2023-02-27T23:21:20.892Z,612.00
2023-02-27T23:22:20.906Z,605.00
2023-02-27T23:23:20.938Z,608.00
2023-02-27T23:24:20.988Z,602.00
2023-02-27T23:25:20.983Z,609.00
2023-02-27T23:26:21.023Z,611.00
2023-02-27T23:27:26.284Z,608.00
2023-02-27T23:28:22.036Z,608.00
2023-02-27T23:29:21.063Z,608.00
2023-02-27T23:30:21.069Z,609.00
2023-02-27T23:31:21.120Z,608.00
2023-02-27T23:32:21.219Z,605.00
2023-02-27T23:33:21.127Z,610.00
2023-02-27T23:34:21.138Z,609.00
2023-02-27T23:35:21.156Z,607.00
2023-02-27T23:36:21.171Z,607.00
2023-02-27T23:37:21.199Z,611.00
2023-02-27T23:38:21.206Z,606.00
2023-02-27T23:39:21.227Z,605.00
2023-02-27T23:40:21.243Z,601.00
2023-02-27T23:41:21.240Z,603.00
2023-02-27T23:42:21.260Z,601.00
2023-02-27T23:43:21.363Z,602.00
2023-02-27T23:44:21.304Z,601.00
2023-02-27T23:45:21.298Z,606.00
2023-02-27T23:46:21.332Z,605.00
2023-02-27T23:47:21.348Z,608.00
2023-02-27T23:48:21.365Z,601.00
2023-02-27T23:49:21.377Z,602.00
2023-02-27T23:50:21.413Z,602.00
2023-02-27T23:51:21.436Z,601.00
2023-02-27T23:52:21.430Z,603.00
2023-02-27T23:53:21.470Z,597.00
2023-02-27T23:54:21.470Z,601.00
2023-02-27T23:55:21.526Z,602.00
2023-02-27T23:56:21.511Z,603.00
2023-02-27T23:57:21.510Z,599.00
2023-02-27T23:58:22.021Z,596.00
2023-02-27T23:59:21.538Z,599.00
